Voreifelwetter - Wetterstation Drove - Standort 5043'47" - 0630'49"
Wetterdaten: aktuell Mittwoch, 08.12.2021 13:15
Datum Zeit Temp. A. Feuchte A. Luftdruck Regen Wind Richtung Richtung Sonnenschein Helligkeit Taupunkt Windchill
08.12.2021 13:15 6,8 C 74 % 996,6 hPa 0,0 mm 19,6 km/h (3 Bft) SW45 215 15 min 28,4 klux 2,5 C 3,4 C
08.12.2021 13:00 6,6 C 73 % 995,6 hPa 0,0 mm 19,1 km/h (3 Bft) S-SW22.5 200 15 min 24,6 klux 2,1 C 3,2 C
08.12.2021 12:44 6,4 C 73 % 995,6 hPa 0,0 mm 18,9 km/h (3 Bft) S-SW22.5 205 0 min 14,8 klux 1,9 C 3,0 C
08.12.2021 12:30 6,3 C 74 % 995,6 hPa 0,0 mm 21,6 km/h (4 Bft) S-SW45 200 0 min 15,3 klux 2,0 C 2,5 C
08.12.2021 12:15 6,3 C 75 % 995,6 hPa 0,0 mm 17,3 km/h (3 Bft) S45 185 0 min 14,1 klux 2,2 C 3,0 C
08.12.2021 12:00 6,1 C 77 % 995,7 hPa 0,0 mm 14,5 km/h (3 Bft) S-SW22.5 205 0 min 11,2 klux 2,4 C 3,2 C
08.12.2021 11:45 6,1 C 77 % 996,7 hPa 0,0 mm 11,6 km/h (2 Bft) SO45 135 0 min 8,85 klux 2,4 C 3,7 C
08.12.2021 11:30 6,0 C 77 % 996,7 hPa 0,0 mm 9,6 km/h (2 Bft) S-SO67.5 155 0 min 9,3 klux 2,3 C 3,9 C
08.12.2021 11:15 5,8 C 79 % 995,7 hPa 0,0 mm 11,2 km/h (2 Bft) S67.5 170 0 min 7,04 klux 2,4 C 3,4 C
08.12.2021 11:00 5,6 C 79 % 995,7 hPa 0,0 mm 10,6 km/h (2 Bft) S-SO22.5 165 0 min 6,21 klux 2,3 C 3,3 C
08.12.2021 10:45 5,4 C 80 % 995,7 hPa 0,0 mm 13,1 km/h (3 Bft) S-SO67.5 155 0 min 4,48 klux 2,2 C 2,5 C
08.12.2021 10:30 5,2 C 81 % 995,7 hPa 0,0 mm 6,3 km/h (2 Bft) O 90 0 min 6,36 klux 2,2 C 3,9 C
08.12.2021 10:15 4,9 C 82 % 995,7 hPa 0,0 mm 2,3 km/h (1 Bft) NW45 305 0 min 6,24 klux 2,1 C 4,9 C
08.12.2021 10:00 4,9 C 81 % 994,7 hPa 0,0 mm 0,0 km/h (0 Bft) S 185 0 min 6,00 klux 1,9 C 4,9 C
08.12.2021 09:45 4,9 C 81 % 994,7 hPa 0,0 mm 14,9 km/h (3 Bft) SW22.5 220 0 min 4,53 klux 1,9 C 1,6 C
08.12.2021 09:29 4,9 C 82 % 994,7 hPa 0,0 mm 17,5 km/h (3 Bft) SW45 225 0 min 3,52 klux 2,1 C 1,3 C
08.12.2021 09:15 4,9 C 82 % 994,7 hPa 0,0 mm 12,8 km/h (3 Bft) SW22.5 220 0 min 1,55 klux 2,1 C 2,0 C
08.12.2021 09:00 4,9 C 82 % 994,7 hPa 0,0 mm 16,8 km/h (3 Bft) SW45 215 0 min 1,10 klux 2,1 C 1,4 C
08.12.2021 08:45 4,7 C 83 % 994,7 hPa 0,0 mm 9,0 km/h (2 Bft) SW22.5 215 0 min 531 lux 2,1 C 2,5 C
08.12.2021 08:30 4,9 C 83 % 994,7 hPa 0,0 mm 13,3 km/h (3 Bft) S-SO67.5 160 0 min 180 lux 2,3 C 1,9 C
08.12.2021 08:15 4,8 C 84 % 994,7 hPa 0,0 mm 20,5 km/h (4 Bft) SW22.5 215 0 min 72 lux 2,3 C 0,8 C
08.12.2021 08:00 4,7 C 84 % 994,7 hPa 0,0 mm 11,5 km/h (2 Bft) S-SW22.5 200 0 min 0 lux 2,2 C 2,0 C
08.12.2021 07:45 4,8 C 84 % 994,7 hPa 0,0 mm 9,6 km/h (2 Bft) SW45 220 0 min 0 lux 2,3 C 2,5 C
08.12.2021 07:30 4,8 C 85 % 994,7 hPa 0,0 mm 15,3 km/h (3 Bft) SW22.5 230 0 min 0 lux 2,5 C 1,5 C
08.12.2021 07:15 4,9 C 86 % 994,7 hPa 0,0 mm 19,3 km/h (3 Bft) W-SW67.5 250 0 min 0 lux 2,8 C 1,0 C
08.12.2021 07:00 4,6 C 88 % 994,7 hPa 0,0 mm 16,5 km/h (3 Bft) SW45 225 0 min 0 lux 2,8 C 1,0 C
08.12.2021 06:45 4,2 C 89 % 993,8 hPa 0,0 mm 7,9 km/h (2 Bft) S-SW22.5 205 0 min 0 lux 2,6 C 2,2 C
08.12.2021 06:30 3,9 C 89 % 993,8 hPa 0,0 mm 3,6 km/h (1 Bft) SW45 215 0 min 0 lux 2,3 C 3,9 C
08.12.2021 06:15 3,9 C 89 % 993,8 hPa 0,0 mm 8,7 km/h (2 Bft) SW67.5 225 0 min 0 lux 2,3 C 1,7 C
08.12.2021 06:00 3,9 C 87 % 993,8 hPa 0,0 mm 0,0 km/h (0 Bft) SO 140 0 min 0 lux 1,9 C 3,9 C
08.12.2021 05:45 4,7 C 86 % 993,7 hPa 0,0 mm 3,6 km/h (1 Bft) S67.5 185 0 min 0 lux 2,6 C 4,7 C
08.12.2021 05:30 5,5 C 86 % 993,7 hPa 0,0 mm 0,0 km/h (0 Bft) W 275 0 min 0 lux 3,3 C 5,5 C
08.12.2021 05:15 5,9 C 87 % 993,6 hPa 0,0 mm 4,9 km/h (1 Bft) SW67.5 230 0 min 0 lux 3,9 C 5,1 C
08.12.2021 05:00 5,9 C 87 % 993,6 hPa 0,1 mm 12,6 km/h (3 Bft) SW45 230 0 min 0 lux 3,9 C 3,2 C
08.12.2021 04:45 5,6 C 85 % 993,6 hPa 0,0 mm 4,7 km/h (1 Bft) S22.5 175 0 min 0 lux 3,3 C 4,9 C
08.12.2021 04:30 5,8 C 85 % 993,6 hPa 0,0 mm 6,6 km/h (2 Bft) SO45 140 0 min 0 lux 3,5 C 4,5 C
08.12.2021 04:15 6,0 C 85 % 993,6 hPa 0,0 mm 9,2 km/h (2 Bft) S22.5 190 0 min 0 lux 3,7 C 4,0 C
08.12.2021 04:00 6,1 C 84 % 993,6 hPa 0,0 mm 10,6 km/h (2 Bft) SW22.5 215 0 min 0 lux 3,6 C 3,9 C
08.12.2021 03:45 6,2 C 85 % 993,6 hPa 0,0 mm 16,8 km/h (3 Bft) SW45 220 0 min 0 lux 3,9 C 3,0 C
08.12.2021 03:30 6,2 C 85 % 993,6 hPa 0,0 mm 17,3 km/h (3 Bft) SW45 230 0 min 0 lux 3,9 C 2,9 C
08.12.2021 03:15 5,9 C 85 % 993,6 hPa 0,0 mm 16,8 km/h (3 Bft) SW45 225 0 min 0 lux 3,6 C 2,6 C
08.12.2021 03:00 5,8 C 85 % 993,6 hPa 0,0 mm 13,0 km/h (3 Bft) S-SW22.5 200 0 min 0 lux 3,5 C 3,1 C
08.12.2021 02:45 5,7 C 85 % 992,6 hPa 0,0 mm 19,0 km/h (3 Bft) S-SW22.5 195 0 min 0 lux 3,4 C 2,1 C
08.12.2021 02:30 5,5 C 86 % 992,6 hPa 0,0 mm 17,5 km/h (3 Bft) S-SW45 200 0 min 0 lux 3,3 C 2,0 C
08.12.2021 02:15 5,3 C 86 % 992,6 hPa 0,0 mm 20,0 km/h (4 Bft) S45 170 0 min 0 lux 3,2 C 1,4 C
08.12.2021 02:00 5,2 C 85 % 992,7 hPa 0,0 mm 15,5 km/h (3 Bft) S45 175 0 min 0 lux 2,9 C 1,9 C
08.12.2021 01:45 5,3 C 84 % 992,6 hPa 0,0 mm 19,2 km/h (3 Bft) S45 180 0 min 0 lux 2,8 C 1,5 C
08.12.2021 01:30 5,2 C 85 % 992,7 hPa 0,0 mm 19,9 km/h (4 Bft) S67.5 185 0 min 0 lux 2,9 C 1,3 C
08.12.2021 01:15 4,8 C 85 % 992,7 hPa 0,0 mm 26,6 km/h (4 Bft) S45 185 0 min 0 lux 2,5 C 0,1 C
08.12.2021 01:00 4,7 C 85 % 992,7 hPa 0,0 mm 21,1 km/h (4 Bft) S67.5 170 0 min 0 lux 2,4 C 0,6 C
08.12.2021 00:45 4,7 C 83 % 992,7 hPa 0,0 mm 25,6 km/h (4 Bft) S45 170 0 min 0 lux 2,1 C 0,1 C
08.12.2021 00:30 4,8 C 81 % 993,7 hPa 0,0 mm 24,3 km/h (4 Bft) S-SO45 165 0 min 0 lux 1,8 C 0,3 C
08.12.2021 00:15 4,7 C 80 % 993,7 hPa 0,0 mm 25,1 km/h (4 Bft) S-SO67.5 165 0 min 0 lux 1,6 C 0,1 C
08.12.2021 00:00 4,7 C 80 % 993,7 hPa 0,0 mm 33,4 km/h (5 Bft) S45 170 0 min 0 lux 1,6 C -0,6 C
_ Min-Zeit 06:00 12:44 02:45 - 05:30 - - - - 00:00 00:00
Minimum _ 3,9 C 73 % 992,6 hPa - 0,0 km/h (0 Bft) - - - - 1,6 C -0,6 C
_ Max-Zeit 13:15 06:15 11:30 05:00 00:00 - - 13:00 13:15 05:00 05:30
Maximum _ 6,8 C 89 % 996,7 hPa 0,1 mm 33,4 km/h
S (5 Bft)
- - 15 min 28,4 klux 3,9 C 5,5 C
Durchschnitt _ 5,3 C 83 % 994,3 hPa #0,1 mm 14,0 km/h (3 Bft) SW - #30 min. 3,24 klux 2,6 C 2,6 C